Marstons Mills, Massachusetts
Current Conditions -  °F | °C
As of 8:55 PM on Sunday 21 Dec 2014 (Local Time) from KFMH Reporting Station
Overcast Overcast  
Wind Chill: 37°   Ceiling: 5000
Heat Index: 37°   Visibility: 10mi
Dew Point: 34°   Wind: 3mph
Humidity: 87%   Direction: 310°NW
Pressure: 30.31"   Gusts: NA
Location:  41.66°N, 70.41°W
Report Text: KFMH 220155Z AUTO 31003KT 10SM OVC050 03/01 A3031 RMK AO2
Loading
Personal Weather Stations






























Interactive Weather Map New forecast layout! Learn more

10-Day Weather Forecast

Advertisements
Track Severe Weather on mobile